createdAt,value
2018-04-25T00:02:05.521Z,99450.26
2018-04-25T00:04:37.386Z,99441.73
2018-04-25T00:07:09.050Z,99443.98
2018-04-25T00:09:40.464Z,99439.44
2018-04-25T00:12:11.872Z,99447.17
2018-04-25T00:14:43.615Z,99438.35
2018-04-25T00:17:15.362Z,99434.51
2018-04-25T00:19:46.778Z,99431.91
2018-04-25T00:22:19.253Z,99432.59
2018-04-25T00:24:50.628Z,99431.66
2018-04-25T00:27:22.462Z,99427.42
2018-04-25T00:29:54.535Z,99419.91
2018-04-25T00:32:26.126Z,99415.08
2018-04-25T00:34:57.459Z,99420.09
2018-04-25T00:37:28.799Z,99410.59
2018-04-25T00:40:00.493Z,99408.80
2018-04-25T00:42:31.879Z,99404.30
2018-04-25T00:45:05.190Z,99399.58
2018-04-25T00:47:37.555Z,99400.80
2018-04-25T00:50:14.575Z,99403.20
2018-04-25T00:52:45.214Z,99400.36
2018-04-25T00:55:17.036Z,99400.05
2018-04-25T00:57:48.440Z,99396.30
2018-04-25T01:00:21.061Z,99387.39
2018-04-25T01:02:54.379Z,99387.80
2018-04-25T01:05:26.502Z,99393.33
2018-04-25T01:07:57.915Z,99392.54
2018-04-25T01:10:31.495Z,99392.17
2018-04-25T01:13:03.796Z,99381.75
2018-04-25T01:15:36.240Z,99379.90
2018-04-25T01:18:08.583Z,99381.64
2018-04-25T01:20:40.038Z,99375.05
2018-04-25T01:23:11.637Z,99373.47
2018-04-25T01:25:42.999Z,99374.98
2018-04-25T01:28:13.648Z,99381.50
2018-04-25T01:30:45.244Z,99381.17
2018-04-25T01:33:16.322Z,99381.92
2018-04-25T01:35:49.150Z,99375.95
2018-04-25T01:38:19.606Z,99368.52
2018-04-25T01:40:51.082Z,99366.35
2018-04-25T01:43:22.474Z,99363.67
2018-04-25T01:46:00.659Z,99354.20
2018-04-25T01:48:33.727Z,99351.14
2018-04-25T01:51:04.415Z,99348.41
2018-04-25T01:53:59.967Z,99346.81
2018-04-25T01:56:48.052Z,99343.27
2018-04-25T01:59:35.428Z,99349.67
2018-04-25T02:02:10.922Z,99342.40
2018-04-25T02:04:42.112Z,99337.27
2018-04-25T02:07:13.467Z,99343.88
2018-04-25T02:09:43.699Z,99337.63
2018-04-25T02:12:16.306Z,99330.80
2018-04-25T02:14:47.986Z,99325.75
2018-04-25T02:17:20.311Z,99324.15
2018-04-25T02:19:50.991Z,99329.52
2018-04-25T02:22:21.482Z,99329.78
2018-04-25T02:24:53.263Z,99334.65
2018-04-25T02:27:25.041Z,99326.62
2018-04-25T02:29:57.065Z,99326.73
2018-04-25T02:32:27.981Z,99326.69
2018-04-25T02:35:00.466Z,99322.37
2018-04-25T02:37:33.560Z,99325.88
2018-04-25T02:40:04.371Z,99321.11
2018-04-25T02:42:35.159Z,99323.02
2018-04-25T02:45:06.618Z,99327.56
2018-04-25T02:47:37.125Z,99325.50
2018-04-25T02:50:07.613Z,99319.98
2018-04-25T02:52:38.071Z,99322.92
2018-04-25T02:55:08.607Z,99325.34
2018-04-25T02:57:39.406Z,99324.86
2018-04-25T03:00:09.947Z,99324.13
2018-04-25T03:02:40.567Z,99329.90
2018-04-25T03:05:12.629Z,99332.06
2018-04-25T03:07:43.389Z,99337.73
2018-04-25T03:10:14.159Z,99335.50
2018-04-25T03:12:45.800Z,99332.89
2018-04-25T03:15:16.639Z,99331.62
2018-04-25T03:17:47.695Z,99320.71
2018-04-25T03:20:18.164Z,99318.28
2018-04-25T03:22:48.926Z,99315.75
2018-04-25T03:25:20.055Z,99309.60
2018-04-25T03:27:50.559Z,99317.26
2018-04-25T03:30:21.094Z,99316.59
2018-04-25T03:32:54.478Z,99327.91
2018-04-25T03:35:24.910Z,99318.88
2018-04-25T03:37:56.116Z,99318.88
2018-04-25T03:40:26.559Z,99319.95
2018-04-25T03:42:57.395Z,99322.14
2018-04-25T03:45:27.936Z,99318.59
2018-04-25T03:47:59.360Z,99316.05
2018-04-25T03:50:29.899Z,99325.19
2018-04-25T03:53:00.386Z,99321.91
2018-04-25T03:55:30.990Z,99332.56
2018-04-25T03:58:01.499Z,99326.71
2018-04-25T04:00:32.048Z,99330.93
2018-04-25T04:03:02.514Z,99324.06
2018-04-25T04:05:33.143Z,99315.45
2018-04-25T04:08:05.576Z,99315.11
2018-04-25T04:10:36.319Z,99315.48
2018-04-25T04:13:07.114Z,99326.44
2018-04-25T04:15:37.686Z,99319.31
2018-04-25T04:18:08.135Z,99315.08
2018-04-25T04:20:38.656Z,99312.70
2018-04-25T04:23:09.138Z,99312.17
2018-04-25T04:25:39.836Z,99312.60
2018-04-25T04:28:10.703Z,99309.55
2018-04-25T04:30:41.232Z,99311.98
2018-04-25T04:33:11.712Z,99320.59
2018-04-25T04:35:42.162Z,99310.58
2018-04-25T04:38:12.676Z,99310.11
2018-04-25T04:40:43.219Z,99306.53
2018-04-25T04:43:13.903Z,99315.27
2018-04-25T04:45:44.539Z,99313.81
2018-04-25T04:48:15.064Z,99312.52
2018-04-25T04:50:45.602Z,99309.67
2018-04-25T04:53:19.262Z,99310.70
2018-04-25T04:55:49.718Z,99313.91
2018-04-25T04:58:20.190Z,99312.48
2018-04-25T05:00:50.734Z,99305.37
2018-04-25T05:03:21.483Z,99305.50
2018-04-25T05:05:52.012Z,99302.48
2018-04-25T05:08:23.103Z,99303.35
2018-04-25T05:10:53.598Z,99303.83
2018-04-25T05:13:24.738Z,99300.75
2018-04-25T05:15:56.288Z,99302.51
2018-04-25T05:18:26.752Z,99296.66
2018-04-25T05:20:58.182Z,99301.64
2018-04-25T05:23:29.024Z,99309.86
2018-04-25T05:25:59.618Z,99309.05
2018-04-25T05:28:30.162Z,99312.47
2018-04-25T05:31:00.691Z,99314.02
2018-04-25T05:33:31.258Z,99311.03
2018-04-25T05:36:02.437Z,99308.48
2018-04-25T05:38:33.037Z,99305.98
2018-04-25T05:41:03.581Z,99309.45
2018-04-25T05:43:35.545Z,99312.83
2018-04-25T05:46:06.250Z,99318.20
2018-04-25T05:48:37.032Z,99318.77
2018-04-25T05:51:08.099Z,99322.14
2018-04-25T05:53:38.807Z,99317.65
2018-04-25T05:56:09.448Z,99323.43
2018-04-25T05:58:39.998Z,99322.16
2018-04-25T06:01:10.618Z,99317.70
2018-04-25T06:03:41.658Z,99324.77
2018-04-25T06:06:12.163Z,99327.69
2018-04-25T06:08:42.743Z,99320.03
2018-04-25T06:11:13.579Z,99320.88
2018-04-25T06:13:44.107Z,99321.71
2018-04-25T06:16:14.651Z,99336.52
2018-04-25T06:18:45.498Z,99344.16
2018-04-25T06:21:16.026Z,99334.58
2018-04-25T06:23:54.868Z,99339.84
2018-04-25T06:26:28.997Z,99332.55
2018-04-25T06:28:59.742Z,99327.25
2018-04-25T06:31:30.262Z,99321.38
2018-04-25T06:34:03.099Z,99323.23
2018-04-25T06:36:33.741Z,99328.00
2018-04-25T06:39:04.407Z,99323.50
2018-04-25T06:44:15.254Z,99330.73
2018-04-25T06:46:45.613Z,99336.86
2018-04-25T06:49:16.575Z,99347.33
2018-04-25T06:51:47.720Z,99346.56
2018-04-25T06:54:18.186Z,99344.62
2018-04-25T06:56:49.010Z,99337.13
2018-04-25T06:59:19.774Z,99343.80
2018-04-25T07:01:50.230Z,99340.49
2018-04-25T07:04:22.106Z,99331.03
2018-04-25T07:06:52.560Z,99338.42
2018-04-25T07:09:23.230Z,99342.61
2018-04-25T07:11:54.131Z,99345.06
2018-04-25T07:14:25.578Z,99350.48
2018-04-25T07:16:56.089Z,99349.45
2018-04-25T07:19:27.983Z,99347.06
2018-04-25T07:21:58.625Z,99340.50
2018-04-25T07:24:29.162Z,99342.41
2018-04-25T07:27:00.748Z,99334.05
2018-04-25T07:29:31.466Z,99323.17
2018-04-25T07:32:02.790Z,99336.63
2018-04-25T07:34:35.725Z,99329.57
2018-04-25T07:37:06.265Z,99339.52
2018-04-25T07:39:37.368Z,99339.76
2018-04-25T07:42:12.511Z,99349.36
2018-04-25T07:44:44.404Z,99349.26
2018-04-25T07:47:20.752Z,99345.22
2018-04-25T07:49:52.974Z,99351.72
2018-04-25T07:52:24.477Z,99370.20
2018-04-25T07:55:02.800Z,99345.58
2018-04-25T07:57:34.045Z,99357.57
2018-04-25T08:00:06.410Z,99367.49
2018-04-25T08:02:37.586Z,99361.80
2018-04-25T08:05:09.036Z,99367.98
2018-04-25T08:07:39.837Z,99368.53
2018-04-25T08:10:11.539Z,99373.85
2018-04-25T08:12:53.004Z,99367.30
2018-04-25T08:17:37.650Z,99376.70
2018-04-25T08:20:17.527Z,99375.86
2018-04-25T08:22:48.047Z,99371.91
2018-04-25T08:25:18.559Z,99368.97
2018-04-25T08:27:55.563Z,99380.25
2018-04-25T08:30:26.381Z,99388.45
2018-04-25T08:32:56.880Z,99387.09
2018-04-25T08:35:27.519Z,99388.42
2018-04-25T08:37:58.347Z,99392.71
2018-04-25T08:40:35.949Z,99389.75
2018-04-25T08:43:06.789Z,99389.72
2018-04-25T08:45:37.366Z,99386.23
2018-04-25T08:48:08.876Z,99392.54
2018-04-25T08:50:39.651Z,99394.23
2018-04-25T08:53:10.812Z,99396.78
2018-04-25T08:55:41.420Z,99391.80
2018-04-25T08:58:11.949Z,99391.67
2018-04-25T09:00:42.663Z,99351.37
2018-04-25T09:03:13.505Z,99385.95
2018-04-25T09:05:44.713Z,99384.03
2018-04-25T09:10:43.884Z,99390.27
2018-04-25T09:13:16.033Z,99386.59
2018-04-25T09:15:46.706Z,99389.04
2018-04-25T09:18:19.821Z,99400.34
2018-04-25T09:20:50.756Z,99398.38
2018-04-25T09:23:24.069Z,99391.67
2018-04-25T09:25:54.858Z,99407.38
2018-04-25T09:28:25.427Z,99391.07
2018-04-25T09:30:57.284Z,99397.75
2018-04-25T09:33:27.863Z,99379.38
2018-04-25T09:35:58.586Z,99391.05
2018-04-25T09:38:29.109Z,99383.22
2018-04-25T09:40:59.736Z,99393.91
2018-04-25T09:43:30.586Z,99376.03
2018-04-25T09:46:01.399Z,99385.28
2018-04-25T09:48:32.149Z,99387.52
2018-04-25T09:51:03.114Z,99402.48
2018-04-25T09:53:34.058Z,99401.96
2018-04-25T09:56:05.392Z,99393.23
2018-04-25T09:58:37.270Z,99397.21
2018-04-25T10:01:08.106Z,99403.06
2018-04-25T10:03:44.423Z,99399.66
2018-04-25T10:06:25.959Z,99401.48
2018-04-25T10:08:58.766Z,99397.84
2018-04-25T10:11:29.780Z,99395.45
2018-04-25T10:14:00.720Z,99394.61
2018-04-25T10:16:32.014Z,99394.49
2018-04-25T10:19:05.611Z,99397.77
2018-04-25T10:21:36.189Z,99398.65
2018-04-25T10:24:07.089Z,99413.58
2018-04-25T10:26:37.613Z,99410.97
2018-04-25T10:29:08.912Z,99409.51
2018-04-25T10:31:41.927Z,99418.33
2018-04-25T10:34:12.523Z,99424.16
2018-04-25T10:36:43.179Z,99411.02
2018-04-25T10:39:13.844Z,99409.98
2018-04-25T10:41:44.415Z,99415.32
2018-04-25T10:44:16.380Z,99407.32
2018-04-25T10:46:46.919Z,99409.55
2018-04-25T10:49:18.225Z,99402.57
2018-04-25T10:51:50.558Z,99412.68
2018-04-25T10:54:21.931Z,99406.08
2018-04-25T10:56:52.538Z,99399.98
2018-04-25T10:59:23.986Z,99402.98
2018-04-25T11:01:54.451Z,99400.09
2018-04-25T11:04:25.396Z,99412.44
2018-04-25T11:06:55.983Z,99409.19
2018-04-25T11:09:27.008Z,99408.50
2018-04-25T11:12:01.880Z,99413.72
2018-04-25T11:14:32.383Z,99395.22
2018-04-25T11:17:04.009Z,99408.12
2018-04-25T11:19:34.736Z,99412.64
2018-04-25T11:22:09.789Z,99413.89
2018-04-25T11:24:41.102Z,99416.14
2018-04-25T11:27:11.723Z,99419.29
2018-04-25T11:29:42.756Z,99417.45
2018-04-25T11:32:13.743Z,99408.84
2018-04-25T11:34:44.288Z,99422.75
2018-04-25T11:37:14.880Z,99422.49
2018-04-25T11:39:45.399Z,99429.89
2018-04-25T11:42:17.303Z,99420.93
2018-04-25T11:44:48.802Z,99421.31
2018-04-25T11:47:19.982Z,99425.20
2018-04-25T11:49:51.073Z,99420.94
2018-04-25T11:52:21.764Z,99412.88
2018-04-25T11:54:52.523Z,99421.59
2018-04-25T11:57:23.053Z,99412.12
2018-04-25T11:59:53.628Z,99419.07
2018-04-25T12:02:24.239Z,99414.95
2018-04-25T12:04:56.111Z,99415.09
2018-04-25T12:07:27.583Z,99415.49
2018-04-25T12:09:58.210Z,99406.71
2018-04-25T12:12:28.754Z,99411.63
2018-04-25T12:14:59.265Z,99412.50
2018-04-25T12:17:29.850Z,99422.62
2018-04-25T12:20:01.433Z,99411.62
2018-04-25T12:23:02.710Z,99426.48
2018-04-25T12:25:33.641Z,99452.87
2018-04-25T12:28:04.234Z,99484.40
2018-04-25T12:30:39.627Z,99490.22
2018-04-25T12:33:12.119Z,99494.80
2018-04-25T12:35:45.454Z,99476.41
2018-04-25T12:38:19.723Z,99472.70
2018-04-25T12:40:53.138Z,99497.77
2018-04-25T12:43:26.369Z,99489.61
2018-04-25T12:45:59.844Z,99481.87
2018-04-25T12:48:34.426Z,99479.17
2018-04-25T12:51:06.762Z,99469.42
2018-04-25T12:53:40.905Z,99466.69
2018-04-25T12:56:15.225Z,99461.84
2018-04-25T12:58:47.577Z,99463.86
2018-04-25T13:01:19.163Z,99460.82
2018-04-25T13:03:50.588Z,99452.25
2018-04-25T13:06:22.093Z,99449.13
2018-04-25T13:08:54.389Z,99455.25
2018-04-25T13:11:25.982Z,99453.46
2018-04-25T13:13:57.356Z,99449.75
2018-04-25T13:16:32.018Z,99462.48
2018-04-25T13:19:06.062Z,99458.88
2018-04-25T13:21:40.134Z,99463.62
2018-04-25T13:24:12.510Z,99467.20
2018-04-25T13:26:46.817Z,99450.77
2018-04-25T13:29:19.224Z,99463.33
2018-04-25T13:31:52.772Z,99459.66
2018-04-25T13:34:29.540Z,99477.47
2018-04-25T13:37:02.253Z,99475.87
2018-04-25T13:39:34.479Z,99492.79
2018-04-25T13:42:08.026Z,99484.50
2018-04-25T13:44:39.239Z,99486.35
2018-04-25T13:47:10.773Z,99473.28
2018-04-25T13:49:43.064Z,99467.62
2018-04-25T13:52:16.245Z,99458.44
2018-04-25T13:54:50.153Z,99451.87
2018-04-25T13:57:24.326Z,99445.50
2018-04-25T14:00:06.445Z,99442.52
2018-04-25T14:02:38.763Z,99448.33
2018-04-25T14:05:12.005Z,99441.58
2018-04-25T14:07:44.435Z,99454.06
2018-04-25T14:10:16.672Z,99455.84
2018-04-25T14:12:51.985Z,99450.20
2018-04-25T14:15:24.308Z,99441.11
2018-04-25T14:17:58.325Z,99445.00
2018-04-25T14:20:29.874Z,99441.43
2018-04-25T14:23:02.699Z,99447.30
2018-04-25T14:25:37.207Z,99440.23
2018-04-25T14:28:12.380Z,99436.17
2018-04-25T14:30:47.907Z,99611.38
2018-04-25T14:33:23.193Z,99436.75
2018-04-25T14:35:59.918Z,99432.80
2018-04-25T14:38:39.281Z,99427.95
2018-04-25T14:41:11.620Z,99436.84
2018-04-25T14:43:46.083Z,99433.77
2018-04-25T14:46:17.635Z,99431.44
2018-04-25T14:48:49.316Z,99435.45
2018-04-25T14:51:24.384Z,99448.89
2018-04-25T14:54:02.313Z,99444.44
2018-04-25T14:56:36.188Z,99427.09
2018-04-25T14:59:10.812Z,99429.61
2018-04-25T15:01:44.906Z,99435.03
2018-04-25T15:04:18.875Z,99435.06
2018-04-25T15:06:52.112Z,99439.02
2018-04-25T15:09:26.091Z,99444.41
2018-04-25T15:11:59.440Z,99444.55
2018-04-25T15:14:32.703Z,99447.74
2018-04-25T15:17:07.222Z,99446.63
2018-04-25T15:19:41.348Z,99450.24
2018-04-25T15:22:15.012Z,99463.91
2018-04-25T15:24:48.302Z,99460.36
2018-04-25T15:27:21.524Z,99449.20
2018-04-25T15:29:54.806Z,99451.00
2018-04-25T15:32:28.821Z,99458.29
2018-04-25T15:35:02.107Z,99459.30
2018-04-25T15:37:35.387Z,99453.18
2018-04-25T15:40:10.154Z,99456.02
2018-04-25T15:42:43.683Z,99448.02
2018-04-25T15:45:16.947Z,99451.52
2018-04-25T15:47:50.266Z,99454.94
2018-04-25T15:50:22.497Z,99447.36
2018-04-25T15:52:55.863Z,99447.17
2018-04-25T15:55:29.099Z,99453.80
2018-04-25T15:58:02.919Z,99445.64
2018-04-25T16:00:36.741Z,99445.05
2018-04-25T16:03:09.579Z,99428.60
2018-04-25T16:05:42.095Z,99460.29
2018-04-25T16:08:17.302Z,99468.31
2018-04-25T16:10:51.252Z,99458.53
2018-04-25T16:13:22.856Z,99468.05
2018-04-25T16:15:54.614Z,99465.52
2018-04-25T16:18:26.998Z,99464.73
2018-04-25T16:20:58.724Z,99467.77
2018-04-25T16:23:31.066Z,99467.05
2018-04-25T16:26:03.240Z,99456.11
2018-04-25T16:28:36.152Z,99445.56
2018-04-25T16:31:08.658Z,99453.94
2018-04-25T16:33:40.313Z,99448.83
2018-04-25T16:36:12.898Z,99441.32
2018-04-25T16:38:45.169Z,99440.73
2018-04-25T16:41:17.499Z,99454.48
2018-04-25T16:43:48.990Z,99466.00
2018-04-25T16:46:20.302Z,99453.80
2018-04-25T16:48:52.465Z,99450.63
2018-04-25T16:51:23.823Z,99446.90
2018-04-25T16:53:55.296Z,99441.34
2018-04-25T16:56:27.532Z,99435.70
2018-04-25T16:58:59.887Z,99439.75
2018-04-25T17:01:31.403Z,99438.85
2018-04-25T17:04:03.799Z,99446.62
2018-04-25T17:06:36.232Z,99445.14
2018-04-25T17:09:07.702Z,99439.00
2018-04-25T17:11:40.157Z,99432.91
2018-04-25T17:14:11.711Z,99440.25
2018-04-25T17:16:44.094Z,99438.30
2018-04-25T17:19:15.529Z,99432.13
2018-04-25T17:21:47.860Z,99424.98
2018-04-25T17:24:19.196Z,99436.05
2018-04-25T17:26:50.550Z,99438.53
2018-04-25T17:29:22.503Z,99431.94
2018-04-25T17:31:56.361Z,99431.88
2018-04-25T17:34:27.918Z,99438.87
2018-04-25T17:36:59.572Z,99455.19
2018-04-25T17:39:30.998Z,99462.31
2018-04-25T17:42:03.296Z,99458.59
2018-04-25T17:44:35.863Z,99456.81
2018-04-25T17:47:07.197Z,99466.88
2018-04-25T17:49:40.607Z,99467.34
2018-04-25T17:52:12.075Z,99465.18
2018-04-25T17:54:44.446Z,99468.89
2018-04-25T17:57:16.808Z,99467.00
2018-04-25T17:59:48.161Z,99467.44
2018-04-25T18:02:20.584Z,99471.91
2018-04-25T18:04:52.004Z,99475.20
2018-04-25T18:07:24.026Z,99484.95
2018-04-25T18:09:55.463Z,99489.77
2018-04-25T18:12:26.844Z,99486.88
2018-04-25T18:14:58.254Z,99473.27
2018-04-25T18:17:30.941Z,99479.38
2018-04-25T18:20:03.180Z,99484.95
2018-04-25T18:22:34.584Z,99487.70
2018-04-25T18:25:06.075Z,99492.03
2018-04-25T18:27:39.475Z,99487.95
2018-04-25T18:30:10.834Z,99481.09
2018-04-25T18:32:44.330Z,99464.17
2018-04-25T18:35:16.515Z,99473.27
2018-04-25T18:37:47.942Z,99474.09
2018-04-25T18:40:19.405Z,99477.27
2018-04-25T18:42:50.751Z,99480.34
2018-04-25T18:45:23.975Z,99484.69
2018-04-25T18:47:56.172Z,99489.41
2018-04-25T18:50:27.626Z,99488.05
2018-04-25T18:52:59.933Z,99482.59
2018-04-25T18:55:31.446Z,99484.36
2018-04-25T18:58:02.865Z,99500.95
2018-04-25T19:00:34.391Z,99506.22
2018-04-25T19:03:05.869Z,99510.34
2018-04-25T19:05:40.071Z,99511.67
2018-04-25T19:08:11.614Z,99521.58
2018-04-25T19:10:45.557Z,99527.87
2018-04-25T19:13:17.887Z,99533.97
2018-04-25T19:15:51.916Z,99518.73
2018-04-25T19:18:25.916Z,99528.23
2018-04-25T19:20:57.919Z,99510.77
2018-04-25T19:23:30.497Z,99509.74
2018-04-25T19:26:03.664Z,99511.05
2018-04-25T19:28:35.215Z,99505.93
2018-04-25T19:31:07.452Z,99526.18
2018-04-25T19:33:44.957Z,99539.87
2018-04-25T19:36:18.181Z,99544.44
2018-04-25T19:38:54.887Z,99550.92
2018-04-25T19:41:28.799Z,99560.62
2018-04-25T19:44:02.108Z,99572.26
2018-04-25T19:46:35.343Z,99577.33
2018-04-25T19:49:10.263Z,99573.50
2018-04-25T19:51:43.737Z,99584.23
2018-04-25T19:54:17.737Z,99583.47
2018-04-25T19:56:51.763Z,99583.63
2018-04-25T19:59:24.108Z,99583.13
2018-04-25T20:01:56.326Z,99581.36
2018-04-25T20:04:29.613Z,99581.45
2018-04-25T20:07:01.039Z,99587.25
2018-04-25T20:09:32.530Z,99592.36
2018-04-25T20:12:03.978Z,99594.75
2018-04-25T20:14:35.925Z,99598.23
2018-04-25T20:17:08.270Z,99601.39
2018-04-25T20:19:40.729Z,99604.91
2018-04-25T20:22:12.245Z,99609.80
2018-04-25T20:24:43.778Z,99616.32
2018-04-25T20:27:15.143Z,99611.91
2018-04-25T20:29:46.640Z,99611.03
2018-04-25T20:32:18.208Z,99615.91
2018-04-25T20:34:50.056Z,99616.64
2018-04-25T20:37:22.300Z,99609.12
2018-04-25T20:39:53.846Z,99608.31
2018-04-25T20:42:26.054Z,99593.77
2018-04-25T20:45:01.328Z,99595.95
2018-04-25T20:47:33.917Z,99599.64
2018-04-25T20:50:07.937Z,99596.02
2018-04-25T20:52:39.802Z,99601.52
2018-04-25T20:55:12.159Z,99613.11
2018-04-25T20:57:43.843Z,99612.60
2018-04-25T21:00:16.449Z,99621.49
2018-04-25T21:02:48.046Z,99621.77
2018-04-25T21:05:19.421Z,99627.80
2018-04-25T21:07:51.129Z,99625.45
2018-04-25T21:10:23.420Z,99634.08
2018-04-25T21:12:55.696Z,99639.02
2018-04-25T21:15:27.611Z,99645.38
2018-04-25T21:17:59.866Z,99650.81
2018-04-25T21:20:31.339Z,99644.83
2018-04-25T21:23:03.575Z,99643.34
2018-04-25T21:25:34.892Z,99639.12
2018-04-25T21:28:07.525Z,99640.05
2018-04-25T21:30:39.239Z,99640.42
2018-04-25T21:33:11.559Z,99646.80
2018-04-25T21:35:48.244Z,99646.77
2018-04-25T21:38:20.587Z,99649.48
2018-04-25T21:40:52.054Z,99655.50
2018-04-25T21:43:24.683Z,99650.62
2018-04-25T21:45:57.920Z,99647.06
2018-04-25T21:48:30.507Z,99654.23
2018-04-25T21:51:02.864Z,99654.62
2018-04-25T21:53:34.852Z,99661.28
2018-04-25T21:56:06.162Z,99659.31
2018-04-25T21:58:37.543Z,99660.91
2018-04-25T22:01:09.427Z,99668.61
2018-04-25T22:03:41.579Z,99665.05
2018-04-25T22:06:14.123Z,99664.97
2018-04-25T22:08:46.423Z,99661.67
2018-04-25T22:11:17.733Z,99660.36
2018-04-25T22:13:55.872Z,99651.66
2018-04-25T22:16:27.202Z,99667.57
2018-04-25T22:18:59.692Z,99663.03
2018-04-25T22:21:31.242Z,99665.87
2018-04-25T22:24:03.567Z,99669.77
2018-04-25T22:26:35.220Z,99670.51
2018-04-25T22:29:06.653Z,99676.83
2018-04-25T22:31:39.090Z,99672.30
2018-04-25T22:34:11.535Z,99677.64
2018-04-25T22:36:44.006Z,99677.48
2018-04-25T22:39:15.759Z,99676.92
2018-04-25T22:41:48.043Z,99677.83
2018-04-25T22:44:20.438Z,99683.31
2018-04-25T22:46:52.495Z,99689.14
2018-04-25T22:49:26.888Z,99691.86
2018-04-25T22:52:00.973Z,99689.32
2018-04-25T22:54:32.490Z,99692.98
2018-04-25T22:57:06.390Z,99699.77
2018-04-25T22:59:41.520Z,99698.17
2018-04-25T23:02:14.735Z,99696.00
2018-04-25T23:04:49.079Z,99693.48
2018-04-25T23:07:25.100Z,99688.86
2018-04-25T23:09:59.817Z,99692.20
2018-04-25T23:12:33.078Z,99696.98
2018-04-25T23:15:06.931Z,99693.48
2018-04-25T23:17:40.765Z,99698.72
2018-04-25T23:20:13.923Z,99699.31
2018-04-25T23:22:47.150Z,99717.16
2018-04-25T23:25:20.620Z,99705.91
2018-04-25T23:27:53.778Z,99714.30
2018-04-25T23:30:27.020Z,99711.83
2018-04-25T23:33:00.282Z,99720.31
2018-04-25T23:35:35.622Z,99717.69
2018-04-25T23:38:09.534Z,99714.23
2018-04-25T23:40:43.896Z,99717.23
2018-04-25T23:43:17.628Z,99715.92
2018-04-25T23:45:50.751Z,99715.35
2018-04-25T23:48:23.956Z,99723.22
2018-04-25T23:50:57.982Z,99729.05
2018-04-25T23:53:31.203Z,99725.88
2018-04-25T23:56:04.507Z,99724.13
2018-04-25T23:58:39.846Z,99725.20
